sensor_id;sensor_type;location;lat;lon;timestamp;temperature;humidity
10702;DHT22;5402;50.004;8.246;2023-10-13T00:01:21;16.00;99.90
10702;DHT22;5402;50.004;8.246;2023-10-13T00:03:48;16.00;99.90
10702;DHT22;5402;50.004;8.246;2023-10-13T00:06:14;15.90;99.90
10702;DHT22;5402;50.004;8.246;2023-10-13T00:08:41;15.90;99.90
10702;DHT22;5402;50.004;8.246;2023-10-13T00:11:12;15.80;99.90
10702;DHT22;5402;50.004;8.246;2023-10-13T00:13:38;15.80;99.90
10702;DHT22;5402;50.004;8.246;2023-10-13T00:16:16;15.80;99.90
10702;DHT22;5402;50.004;8.246;2023-10-13T00:18:47;15.80;99.90
10702;DHT22;5402;50.004;8.246;2023-10-13T00:21:14;15.90;99.90
10702;DHT22;5402;50.004;8.246;2023-10-13T00:23:46;15.90;99.90
10702;DHT22;5402;50.004;8.246;2023-10-13T00:26:18;15.90;99.90
10702;DHT22;5402;50.004;8.246;2023-10-13T00:28:49;15.80;99.90
10702;DHT22;5402;50.004;8.246;2023-10-13T00:31:25;15.90;99.90
10702;DHT22;5402;50.004;8.246;2023-10-13T00:33:57;15.90;99.90
10702;DHT22;5402;50.004;8.246;2023-10-13T00:36:30;15.90;99.90
10702;DHT22;5402;50.004;8.246;2023-10-13T00:39:00;16.00;99.90
10702;DHT22;5402;50.004;8.246;2023-10-13T00:41:26;15.90;99.90
10702;DHT22;5402;50.004;8.246;2023-10-13T00:44:16;15.90;99.90
10702;DHT22;5402;50.004;8.246;2023-10-13T00:46:44;15.80;99.90
10702;DHT22;5402;50.004;8.246;2023-10-13T00:49:12;15.90;99.90
10702;DHT22;5402;50.004;8.246;2023-10-13T00:51:41;15.90;99.90
10702;DHT22;5402;50.004;8.246;2023-10-13T00:54:13;15.90;99.90
10702;DHT22;5402;50.004;8.246;2023-10-13T00:56:40;15.80;99.90
10702;DHT22;5402;50.004;8.246;2023-10-13T00:59:13;15.90;99.90
10702;DHT22;5402;50.004;8.246;2023-10-13T01:01:39;16.00;99.90
10702;DHT22;5402;50.004;8.246;2023-10-13T01:04:11;16.00;99.90
10702;DHT22;5402;50.004;8.246;2023-10-13T01:06:38;15.90;99.90
10702;DHT22;5402;50.004;8.246;2023-10-13T01:09:06;15.90;99.90
10702;DHT22;5402;50.004;8.246;2023-10-13T01:11:40;16.00;99.90
10702;DHT22;5402;50.004;8.246;2023-10-13T01:14:08;15.90;99.90
10702;DHT22;5402;50.004;8.246;2023-10-13T01:16:36;15.90;99.90
10702;DHT22;5402;50.004;8.246;2023-10-13T01:19:05;15.90;99.90
10702;DHT22;5402;50.004;8.246;2023-10-13T01:21:32;15.90;99.90
10702;DHT22;5402;50.004;8.246;2023-10-13T01:24:02;15.90;99.90
10702;DHT22;5402;50.004;8.246;2023-10-13T01:26:33;15.90;99.90
10702;DHT22;5402;50.004;8.246;2023-10-13T01:29:04;15.70;99.90
10702;DHT22;5402;50.004;8.246;2023-10-13T01:31:37;15.80;99.90
10702;DHT22;5402;50.004;8.246;2023-10-13T01:34:11;15.80;99.90
10702;DHT22;5402;50.004;8.246;2023-10-13T01:36:38;15.80;99.90
10702;DHT22;5402;50.004;8.246;2023-10-13T01:39:07;15.80;99.90
10702;DHT22;5402;50.004;8.246;2023-10-13T01:41:33;15.80;99.90
10702;DHT22;5402;50.004;8.246;2023-10-13T01:44:03;15.90;99.90
10702;DHT22;5402;50.004;8.246;2023-10-13T01:46:30;15.90;99.90
10702;DHT22;5402;50.004;8.246;2023-10-13T01:48:57;15.80;99.90
10702;DHT22;5402;50.004;8.246;2023-10-13T01:51:22;15.90;99.90
10702;DHT22;5402;50.004;8.246;2023-10-13T01:53:49;15.90;99.90
10702;DHT22;5402;50.004;8.246;2023-10-13T01:56:23;16.00;99.90
10702;DHT22;5402;50.004;8.246;2023-10-13T01:58:50;15.90;99.90
10702;DHT22;5402;50.004;8.246;2023-10-13T02:01:17;15.90;99.90
10702;DHT22;5402;50.004;8.246;2023-10-13T02:03:52;15.80;99.90
10702;DHT22;5402;50.004;8.246;2023-10-13T02:06:27;15.70;99.90
10702;DHT22;5402;50.004;8.246;2023-10-13T02:08:58;15.80;99.90
10702;DHT22;5402;50.004;8.246;2023-10-13T02:11:30;15.80;99.90
10702;DHT22;5402;50.004;8.246;2023-10-13T02:13:57;15.70;99.90
10702;DHT22;5402;50.004;8.246;2023-10-13T02:16:23;15.80;99.90
10702;DHT22;5402;50.004;8.246;2023-10-13T02:18:51;15.80;99.90
10702;DHT22;5402;50.004;8.246;2023-10-13T02:21:17;15.80;99.90
10702;DHT22;5402;50.004;8.246;2023-10-13T02:23:44;15.90;99.90
10702;DHT22;5402;50.004;8.246;2023-10-13T02:26:11;15.80;99.90
10702;DHT22;5402;50.004;8.246;2023-10-13T02:28:42;15.70;99.90
10702;DHT22;5402;50.004;8.246;2023-10-13T02:31:09;15.70;99.90
10702;DHT22;5402;50.004;8.246;2023-10-13T02:33:37;15.60;99.90
10702;DHT22;5402;50.004;8.246;2023-10-13T02:36:10;15.50;99.90
10702;DHT22;5402;50.004;8.246;2023-10-13T02:38:38;15.50;99.90
10702;DHT22;5402;50.004;8.246;2023-10-13T02:41:11;15.60;99.90
10702;DHT22;5402;50.004;8.246;2023-10-13T02:43:45;15.60;99.90
10702;DHT22;5402;50.004;8.246;2023-10-13T02:46:11;15.60;99.90
10702;DHT22;5402;50.004;8.246;2023-10-13T02:48:41;15.60;99.90
10702;DHT22;5402;50.004;8.246;2023-10-13T02:51:08;15.60;99.90
10702;DHT22;5402;50.004;8.246;2023-10-13T02:53:42;15.60;99.90
10702;DHT22;5402;50.004;8.246;2023-10-13T02:56:12;15.50;99.90
10702;DHT22;5402;50.004;8.246;2023-10-13T02:58:40;15.50;99.90
10702;DHT22;5402;50.004;8.246;2023-10-13T03:01:10;15.50;99.90
10702;DHT22;5402;50.004;8.246;2023-10-13T03:03:44;15.40;99.90
10702;DHT22;5402;50.004;8.246;2023-10-13T03:06:14;15.40;99.90
10702;DHT22;5402;50.004;8.246;2023-10-13T03:08:41;15.40;99.90
10702;DHT22;5402;50.004;8.246;2023-10-13T03:11:09;15.50;99.90
10702;DHT22;5402;50.004;8.246;2023-10-13T03:13:37;15.40;99.90
10702;DHT22;5402;50.004;8.246;2023-10-13T03:16:14;15.50;99.90
10702;DHT22;5402;50.004;8.246;2023-10-13T03:18:43;15.40;99.90
10702;DHT22;5402;50.004;8.246;2023-10-13T03:21:19;15.40;99.90
10702;DHT22;5402;50.004;8.246;2023-10-13T03:23:55;15.20;99.90
10702;DHT22;5402;50.004;8.246;2023-10-13T03:26:22;15.20;99.90
10702;DHT22;5402;50.004;8.246;2023-10-13T03:28:48;15.20;99.90
10702;DHT22;5402;50.004;8.246;2023-10-13T03:31:19;15.20;99.90
10702;DHT22;5402;50.004;8.246;2023-10-13T03:33:53;15.20;99.90
10702;DHT22;5402;50.004;8.246;2023-10-13T03:36:25;15.20;99.90
10702;DHT22;5402;50.004;8.246;2023-10-13T03:39:22;15.30;99.90
10702;DHT22;5402;50.004;8.246;2023-10-13T03:41:55;15.30;99.90
10702;DHT22;5402;50.004;8.246;2023-10-13T03:44:22;15.30;99.90
10702;DHT22;5402;50.004;8.246;2023-10-13T03:46:50;15.40;99.90
10702;DHT22;5402;50.004;8.246;2023-10-13T03:49:19;15.50;99.90
10702;DHT22;5402;50.004;8.246;2023-10-13T03:51:48;15.40;99.90
10702;DHT22;5402;50.004;8.246;2023-10-13T03:54:15;15.40;99.90
10702;DHT22;5402;50.004;8.246;2023-10-13T03:56:43;15.40;99.90
10702;DHT22;5402;50.004;8.246;2023-10-13T03:59:10;15.40;99.90
10702;DHT22;5402;50.004;8.246;2023-10-13T04:01:44;15.50;99.90
10702;DHT22;5402;50.004;8.246;2023-10-13T04:04:25;15.50;99.90
10702;DHT22;5402;50.004;8.246;2023-10-13T04:07:07;15.40;99.90
10702;DHT22;5402;50.004;8.246;2023-10-13T04:09:58;15.40;99.90
10702;DHT22;5402;50.004;8.246;2023-10-13T04:12:42;15.30;99.90
10702;DHT22;5402;50.004;8.246;2023-10-13T04:15:27;15.20;99.90
10702;DHT22;5402;50.004;8.246;2023-10-13T04:18:03;15.20;99.90
10702;DHT22;5402;50.004;8.246;2023-10-13T04:20:41;15.30;99.90
10702;DHT22;5402;50.004;8.246;2023-10-13T04:23:12;15.30;99.90
10702;DHT22;5402;50.004;8.246;2023-10-13T04:25:44;15.40;99.90
10702;DHT22;5402;50.004;8.246;2023-10-13T04:28:29;15.40;99.90
10702;DHT22;5402;50.004;8.246;2023-10-13T04:31:03;15.40;99.90
10702;DHT22;5402;50.004;8.246;2023-10-13T04:33:39;15.40;99.90
10702;DHT22;5402;50.004;8.246;2023-10-13T04:36:23;15.40;99.90
10702;DHT22;5402;50.004;8.246;2023-10-13T04:39:10;15.40;99.90
10702;DHT22;5402;50.004;8.246;2023-10-13T04:41:40;15.40;99.90
10702;DHT22;5402;50.004;8.246;2023-10-13T04:44:09;15.40;99.90
10702;DHT22;5402;50.004;8.246;2023-10-13T04:46:50;15.40;99.90
10702;DHT22;5402;50.004;8.246;2023-10-13T04:49:38;15.40;99.90
10702;DHT22;5402;50.004;8.246;2023-10-13T04:52:17;15.40;99.90
10702;DHT22;5402;50.004;8.246;2023-10-13T04:55:02;15.40;99.90
10702;DHT22;5402;50.004;8.246;2023-10-13T04:57:42;15.40;99.90
10702;DHT22;5402;50.004;8.246;2023-10-13T05:00:13;15.40;99.90
10702;DHT22;5402;50.004;8.246;2023-10-13T05:02:57;15.40;99.90
10702;DHT22;5402;50.004;8.246;2023-10-13T05:05:43;15.40;99.90
10702;DHT22;5402;50.004;8.246;2023-10-13T05:08:35;15.40;99.90
10702;DHT22;5402;50.004;8.246;2023-10-13T05:11:19;15.50;99.90
10702;DHT22;5402;50.004;8.246;2023-10-13T05:14:03;15.50;99.90
10702;DHT22;5402;50.004;8.246;2023-10-13T05:17:02;15.50;99.90
10702;DHT22;5402;50.004;8.246;2023-10-13T05:19:46;15.50;99.90
10702;DHT22;5402;50.004;8.246;2023-10-13T05:22:30;15.50;99.90
10702;DHT22;5402;50.004;8.246;2023-10-13T05:25:16;15.60;99.90
10702;DHT22;5402;50.004;8.246;2023-10-13T05:28:00;15.60;99.90
10702;DHT22;5402;50.004;8.246;2023-10-13T05:30:44;15.60;99.90
10702;DHT22;5402;50.004;8.246;2023-10-13T05:33:29;15.70;99.90
10702;DHT22;5402;50.004;8.246;2023-10-13T05:36:13;15.60;99.90
10702;DHT22;5402;50.004;8.246;2023-10-13T05:38:58;15.50;99.90
10702;DHT22;5402;50.004;8.246;2023-10-13T05:41:44;15.40;99.90
10702;DHT22;5402;50.004;8.246;2023-10-13T05:44:28;15.40;99.90
10702;DHT22;5402;50.004;8.246;2023-10-13T05:47:12;15.50;99.90
10702;DHT22;5402;50.004;8.246;2023-10-13T05:50:08;15.50;99.90
10702;DHT22;5402;50.004;8.246;2023-10-13T05:52:55;15.60;99.90
10702;DHT22;5402;50.004;8.246;2023-10-13T05:55:39;15.60;99.90
10702;DHT22;5402;50.004;8.246;2023-10-13T05:58:24;15.70;99.90
10702;DHT22;5402;50.004;8.246;2023-10-13T06:01:12;15.70;99.90
10702;DHT22;5402;50.004;8.246;2023-10-13T06:03:56;15.50;99.90
10702;DHT22;5402;50.004;8.246;2023-10-13T06:06:40;15.50;99.90
10702;DHT22;5402;50.004;8.246;2023-10-13T06:09:25;15.60;99.90
10702;DHT22;5402;50.004;8.246;2023-10-13T06:12:09;15.60;99.90
10702;DHT22;5402;50.004;8.246;2023-10-13T06:14:54;15.60;99.90
10702;DHT22;5402;50.004;8.246;2023-10-13T06:17:39;15.60;99.90
10702;DHT22;5402;50.004;8.246;2023-10-13T06:20:23;15.50;99.90
10702;DHT22;5402;50.004;8.246;2023-10-13T06:23:06;15.50;99.90
10702;DHT22;5402;50.004;8.246;2023-10-13T06:25:51;15.50;99.90
10702;DHT22;5402;50.004;8.246;2023-10-13T06:28:35;15.60;99.90
10702;DHT22;5402;50.004;8.246;2023-10-13T06:31:11;15.70;99.90
10702;DHT22;5402;50.004;8.246;2023-10-13T06:33:46;15.80;99.90
10702;DHT22;5402;50.004;8.246;2023-10-13T06:36:13;15.90;99.90
10702;DHT22;5402;50.004;8.246;2023-10-13T06:38:40;15.90;99.90
10702;DHT22;5402;50.004;8.246;2023-10-13T06:41:07;16.00;99.90
10702;DHT22;5402;50.004;8.246;2023-10-13T06:43:35;16.10;99.90
10702;DHT22;5402;50.004;8.246;2023-10-13T06:46:05;16.20;99.90
10702;DHT22;5402;50.004;8.246;2023-10-13T06:48:41;16.30;99.90
10702;DHT22;5402;50.004;8.246;2023-10-13T06:51:09;16.40;99.90
10702;DHT22;5402;50.004;8.246;2023-10-13T06:53:43;16.50;99.90
10702;DHT22;5402;50.004;8.246;2023-10-13T06:56:12;16.50;99.90
10702;DHT22;5402;50.004;8.246;2023-10-13T06:58:43;16.50;99.90
10702;DHT22;5402;50.004;8.246;2023-10-13T07:01:12;16.60;99.90
10702;DHT22;5402;50.004;8.246;2023-10-13T07:03:43;16.60;99.90
10702;DHT22;5402;50.004;8.246;2023-10-13T07:06:14;16.60;99.90
10702;DHT22;5402;50.004;8.246;2023-10-13T07:08:45;16.70;99.90
10702;DHT22;5402;50.004;8.246;2023-10-13T07:11:17;16.70;99.90
10702;DHT22;5402;50.004;8.246;2023-10-13T07:13:48;16.80;99.90
10702;DHT22;5402;50.004;8.246;2023-10-13T07:16:17;16.90;99.90
10702;DHT22;5402;50.004;8.246;2023-10-13T07:18:45;17.00;99.90
10702;DHT22;5402;50.004;8.246;2023-10-13T07:21:19;17.00;99.90
10702;DHT22;5402;50.004;8.246;2023-10-13T07:23:56;17.20;99.90
10702;DHT22;5402;50.004;8.246;2023-10-13T07:26:34;17.30;99.90
10702;DHT22;5402;50.004;8.246;2023-10-13T07:29:02;17.40;99.90
10702;DHT22;5402;50.004;8.246;2023-10-13T07:31:33;17.60;99.90
10702;DHT22;5402;50.004;8.246;2023-10-13T07:34:01;17.70;99.90
10702;DHT22;5402;50.004;8.246;2023-10-13T07:36:38;17.80;99.90
10702;DHT22;5402;50.004;8.246;2023-10-13T07:39:06;17.90;99.90
10702;DHT22;5402;50.004;8.246;2023-10-13T07:41:46;17.90;99.90
10702;DHT22;5402;50.004;8.246;2023-10-13T07:44:17;18.00;99.90
10702;DHT22;5402;50.004;8.246;2023-10-13T07:46:45;18.20;99.90
10702;DHT22;5402;50.004;8.246;2023-10-13T07:49:27;18.30;99.90
10702;DHT22;5402;50.004;8.246;2023-10-13T07:51:57;18.30;99.90
10702;DHT22;5402;50.004;8.246;2023-10-13T07:54:26;18.30;99.90
10702;DHT22;5402;50.004;8.246;2023-10-13T07:56:53;18.40;99.90
10702;DHT22;5402;50.004;8.246;2023-10-13T07:59:20;18.50;99.90
10702;DHT22;5402;50.004;8.246;2023-10-13T08:01:49;18.60;99.90
10702;DHT22;5402;50.004;8.246;2023-10-13T08:04:39;18.60;99.90
10702;DHT22;5402;50.004;8.246;2023-10-13T08:07:05;18.70;99.90
10702;DHT22;5402;50.004;8.246;2023-10-13T08:09:39;18.80;99.90
10702;DHT22;5402;50.004;8.246;2023-10-13T08:12:07;18.70;99.90
10702;DHT22;5402;50.004;8.246;2023-10-13T08:14:37;18.80;99.90
10702;DHT22;5402;50.004;8.246;2023-10-13T08:17:06;18.70;99.90
10702;DHT22;5402;50.004;8.246;2023-10-13T08:19:36;18.80;99.90
10702;DHT22;5402;50.004;8.246;2023-10-13T08:22:09;18.80;99.90
10702;DHT22;5402;50.004;8.246;2023-10-13T08:24:52;18.90;99.90
10702;DHT22;5402;50.004;8.246;2023-10-13T08:27:36;18.90;99.90
10702;DHT22;5402;50.004;8.246;2023-10-13T08:30:14;19.00;99.90
10702;DHT22;5402;50.004;8.246;2023-10-13T08:32:53;19.00;99.90
10702;DHT22;5402;50.004;8.246;2023-10-13T08:35:25;19.20;99.90
10702;DHT22;5402;50.004;8.246;2023-10-13T08:38:03;19.40;99.90
10702;DHT22;5402;50.004;8.246;2023-10-13T08:40:44;19.60;99.90
10702;DHT22;5402;50.004;8.246;2023-10-13T08:43:37;19.50;99.90
10702;DHT22;5402;50.004;8.246;2023-10-13T08:46:10;19.50;99.90
10702;DHT22;5402;50.004;8.246;2023-10-13T08:48:52;19.50;99.90
10702;DHT22;5402;50.004;8.246;2023-10-13T08:51:33;19.50;99.90
10702;DHT22;5402;50.004;8.246;2023-10-13T08:54:13;19.60;99.90
10702;DHT22;5402;50.004;8.246;2023-10-13T08:56:59;19.60;99.90
10702;DHT22;5402;50.004;8.246;2023-10-13T08:59:32;19.80;99.90
10702;DHT22;5402;50.004;8.246;2023-10-13T09:02:12;20.00;99.90
10702;DHT22;5402;50.004;8.246;2023-10-13T09:04:43;20.00;99.90
10702;DHT22;5402;50.004;8.246;2023-10-13T09:07:10;20.00;99.90
10702;DHT22;5402;50.004;8.246;2023-10-13T09:09:46;20.00;99.90
10702;DHT22;5402;50.004;8.246;2023-10-13T09:12:26;20.00;99.90
10702;DHT22;5402;50.004;8.246;2023-10-13T09:15:03;19.90;99.90
10702;DHT22;5402;50.004;8.246;2023-10-13T09:17:40;20.10;99.90
10702;DHT22;5402;50.004;8.246;2023-10-13T09:20:14;20.10;99.90
10702;DHT22;5402;50.004;8.246;2023-10-13T09:22:51;20.30;99.90
10702;DHT22;5402;50.004;8.246;2023-10-13T09:25:35;20.40;99.90
10702;DHT22;5402;50.004;8.246;2023-10-13T09:28:01;20.60;99.90
10702;DHT22;5402;50.004;8.246;2023-10-13T09:30:28;20.60;99.90
10702;DHT22;5402;50.004;8.246;2023-10-13T09:33:00;20.60;99.90
10702;DHT22;5402;50.004;8.246;2023-10-13T09:35:30;20.80;99.90
10702;DHT22;5402;50.004;8.246;2023-10-13T09:38:00;20.90;99.90
10702;DHT22;5402;50.004;8.246;2023-10-13T09:40:28;21.10;99.90
10702;DHT22;5402;50.004;8.246;2023-10-13T09:43:04;21.20;99.90
10702;DHT22;5402;50.004;8.246;2023-10-13T09:45:33;21.40;99.90
10702;DHT22;5402;50.004;8.246;2023-10-13T09:48:03;21.60;99.90
10702;DHT22;5402;50.004;8.246;2023-10-13T09:50:36;21.90;99.90
10702;DHT22;5402;50.004;8.246;2023-10-13T09:53:06;21.90;99.90
10702;DHT22;5402;50.004;8.246;2023-10-13T09:55:38;21.80;99.90
10702;DHT22;5402;50.004;8.246;2023-10-13T09:58:13;21.90;99.90
10702;DHT22;5402;50.004;8.246;2023-10-13T10:00:45;22.00;99.90
10702;DHT22;5402;50.004;8.246;2023-10-13T10:03:15;22.30;99.90
10702;DHT22;5402;50.004;8.246;2023-10-13T10:05:56;22.60;99.90
10702;DHT22;5402;50.004;8.246;2023-10-13T10:08:29;22.70;99.90
10702;DHT22;5402;50.004;8.246;2023-10-13T10:11:13;23.00;99.90
10702;DHT22;5402;50.004;8.246;2023-10-13T10:13:52;23.10;99.90
10702;DHT22;5402;50.004;8.246;2023-10-13T10:16:39;23.00;99.90
10702;DHT22;5402;50.004;8.246;2023-10-13T10:19:12;22.50;99.90
10702;DHT22;5402;50.004;8.246;2023-10-13T10:21:38;22.30;99.90
10702;DHT22;5402;50.004;8.246;2023-10-13T10:24:16;22.20;99.90
10702;DHT22;5402;50.004;8.246;2023-10-13T10:26:55;22.40;99.90
10702;DHT22;5402;50.004;8.246;2023-10-13T10:29:23;22.80;99.90
10702;DHT22;5402;50.004;8.246;2023-10-13T10:31:50;23.10;99.90
10702;DHT22;5402;50.004;8.246;2023-10-13T10:34:17;23.30;99.90
10702;DHT22;5402;50.004;8.246;2023-10-13T10:36:47;23.70;99.90
10702;DHT22;5402;50.004;8.246;2023-10-13T10:39:16;23.70;99.90
10702;DHT22;5402;50.004;8.246;2023-10-13T10:41:44;23.30;99.90
10702;DHT22;5402;50.004;8.246;2023-10-13T10:44:17;23.30;99.90
10702;DHT22;5402;50.004;8.246;2023-10-13T10:46:50;23.30;99.90
10702;DHT22;5402;50.004;8.246;2023-10-13T10:49:25;22.90;99.90
10702;DHT22;5402;50.004;8.246;2023-10-13T10:51:59;22.70;99.90
10702;DHT22;5402;50.004;8.246;2023-10-13T10:54:30;22.70;99.90
10702;DHT22;5402;50.004;8.246;2023-10-13T10:56:59;22.80;99.90
10702;DHT22;5402;50.004;8.246;2023-10-13T10:59:38;23.00;99.90
10702;DHT22;5402;50.004;8.246;2023-10-13T11:02:08;23.10;99.90
10702;DHT22;5402;50.004;8.246;2023-10-13T11:04:36;23.40;99.90
10702;DHT22;5402;50.004;8.246;2023-10-13T11:07:21;23.70;99.90
10702;DHT22;5402;50.004;8.246;2023-10-13T11:09:49;23.70;99.90
10702;DHT22;5402;50.004;8.246;2023-10-13T11:12:19;23.80;99.90
10702;DHT22;5402;50.004;8.246;2023-10-13T11:15:01;24.10;99.90
10702;DHT22;5402;50.004;8.246;2023-10-13T11:17:29;23.90;99.90
10702;DHT22;5402;50.004;8.246;2023-10-13T11:20:11;24.00;99.90
10702;DHT22;5402;50.004;8.246;2023-10-13T11:22:51;24.00;99.90
10702;DHT22;5402;50.004;8.246;2023-10-13T11:25:23;24.00;99.90
10702;DHT22;5402;50.004;8.246;2023-10-13T11:27:55;23.90;99.90
10702;DHT22;5402;50.004;8.246;2023-10-13T11:30:25;24.00;99.90
10702;DHT22;5402;50.004;8.246;2023-10-13T11:33:00;24.00;99.90
10702;DHT22;5402;50.004;8.246;2023-10-13T11:35:31;24.10;99.90
10702;DHT22;5402;50.004;8.246;2023-10-13T11:38:12;24.10;99.90
10702;DHT22;5402;50.004;8.246;2023-10-13T11:40:40;24.00;99.90
10702;DHT22;5402;50.004;8.246;2023-10-13T11:43:10;24.00;99.90
10702;DHT22;5402;50.004;8.246;2023-10-13T11:45:39;24.10;99.90
10702;DHT22;5402;50.004;8.246;2023-10-13T11:48:20;24.10;99.90
10702;DHT22;5402;50.004;8.246;2023-10-13T11:51:00;24.20;99.90
10702;DHT22;5402;50.004;8.246;2023-10-13T11:53:32;24.10;99.90
10702;DHT22;5402;50.004;8.246;2023-10-13T11:55:59;24.10;99.90
10702;DHT22;5402;50.004;8.246;2023-10-13T11:58:26;24.20;99.90
10702;DHT22;5402;50.004;8.246;2023-10-13T12:00:54;24.10;99.90
10702;DHT22;5402;50.004;8.246;2023-10-13T12:03:35;24.00;99.90
10702;DHT22;5402;50.004;8.246;2023-10-13T12:06:19;23.90;99.90
10702;DHT22;5402;50.004;8.246;2023-10-13T12:08:58;23.80;99.90
10702;DHT22;5402;50.004;8.246;2023-10-13T12:11:37;23.80;99.90
10702;DHT22;5402;50.004;8.246;2023-10-13T12:14:07;23.80;99.90
10702;DHT22;5402;50.004;8.246;2023-10-13T12:16:45;23.70;99.90
10702;DHT22;5402;50.004;8.246;2023-10-13T12:19:16;23.70;99.90
10702;DHT22;5402;50.004;8.246;2023-10-13T12:21:43;23.70;99.90
10702;DHT22;5402;50.004;8.246;2023-10-13T12:24:09;23.50;99.90
10702;DHT22;5402;50.004;8.246;2023-10-13T12:26:46;23.60;99.90
10702;DHT22;5402;50.004;8.246;2023-10-13T12:29:13;23.50;99.90
10702;DHT22;5402;50.004;8.246;2023-10-13T12:31:48;23.60;99.90
10702;DHT22;5402;50.004;8.246;2023-10-13T12:34:27;23.60;99.90
10702;DHT22;5402;50.004;8.246;2023-10-13T12:37:16;23.60;99.90
10702;DHT22;5402;50.004;8.246;2023-10-13T12:40:05;23.60;99.90
10702;DHT22;5402;50.004;8.246;2023-10-13T12:42:50;23.60;99.90
10702;DHT22;5402;50.004;8.246;2023-10-13T12:45:38;23.70;99.90
10702;DHT22;5402;50.004;8.246;2023-10-13T12:48:23;23.70;99.90
10702;DHT22;5402;50.004;8.246;2023-10-13T12:51:08;23.80;99.90
10702;DHT22;5402;50.004;8.246;2023-10-13T12:53:45;23.90;99.90
10702;DHT22;5402;50.004;8.246;2023-10-13T12:56:13;24.20;99.90
10702;DHT22;5402;50.004;8.246;2023-10-13T12:58:40;24.30;99.90
10702;DHT22;5402;50.004;8.246;2023-10-13T13:01:07;24.30;99.90
10702;DHT22;5402;50.004;8.246;2023-10-13T13:03:33;24.30;99.90
10702;DHT22;5402;50.004;8.246;2023-10-13T13:06:01;24.40;99.90
10702;DHT22;5402;50.004;8.246;2023-10-13T13:08:34;24.40;99.90
10702;DHT22;5402;50.004;8.246;2023-10-13T13:11:01;24.50;99.90
10702;DHT22;5402;50.004;8.246;2023-10-13T13:13:28;24.50;99.90
10702;DHT22;5402;50.004;8.246;2023-10-13T13:15:55;24.60;99.90
10702;DHT22;5402;50.004;8.246;2023-10-13T13:18:22;24.60;99.90
10702;DHT22;5402;50.004;8.246;2023-10-13T13:20:48;24.60;99.90
10702;DHT22;5402;50.004;8.246;2023-10-13T13:23:20;24.60;99.90
10702;DHT22;5402;50.004;8.246;2023-10-13T13:25:48;24.70;99.90
10702;DHT22;5402;50.004;8.246;2023-10-13T13:28:15;24.70;99.90
10702;DHT22;5402;50.004;8.246;2023-10-13T13:30:41;24.60;99.90
10702;DHT22;5402;50.004;8.246;2023-10-13T13:33:08;24.60;99.90
10702;DHT22;5402;50.004;8.246;2023-10-13T13:35:40;24.50;99.90
10702;DHT22;5402;50.004;8.246;2023-10-13T13:38:08;24.50;99.90
10702;DHT22;5402;50.004;8.246;2023-10-13T13:40:42;24.40;99.90
10702;DHT22;5402;50.004;8.246;2023-10-13T13:43:15;24.30;99.90
10702;DHT22;5402;50.004;8.246;2023-10-13T13:45:57;24.20;99.90
10702;DHT22;5402;50.004;8.246;2023-10-13T13:48:26;24.20;99.90
10702;DHT22;5402;50.004;8.246;2023-10-13T13:50:54;24.30;99.90
10702;DHT22;5402;50.004;8.246;2023-10-13T13:53:21;24.20;99.90
10702;DHT22;5402;50.004;8.246;2023-10-13T13:55:53;24.10;99.90
10702;DHT22;5402;50.004;8.246;2023-10-13T13:58:21;24.10;99.90
10702;DHT22;5402;50.004;8.246;2023-10-13T14:00:50;23.90;99.90
10702;DHT22;5402;50.004;8.246;2023-10-13T14:03:17;23.80;99.90
10702;DHT22;5402;50.004;8.246;2023-10-13T14:05:56;23.70;99.90
10702;DHT22;5402;50.004;8.246;2023-10-13T14:08:24;23.60;99.90
10702;DHT22;5402;50.004;8.246;2023-10-13T14:10:52;23.50;99.90
10702;DHT22;5402;50.004;8.246;2023-10-13T14:13:38;23.40;99.90
10702;DHT22;5402;50.004;8.246;2023-10-13T14:16:15;23.40;99.90
10702;DHT22;5402;50.004;8.246;2023-10-13T14:18:43;23.40;99.90
10702;DHT22;5402;50.004;8.246;2023-10-13T14:21:10;23.50;99.90
10702;DHT22;5402;50.004;8.246;2023-10-13T14:23:45;23.60;99.90
10702;DHT22;5402;50.004;8.246;2023-10-13T14:26:13;23.80;99.90
10702;DHT22;5402;50.004;8.246;2023-10-13T14:28:41;23.90;99.90
10702;DHT22;5402;50.004;8.246;2023-10-13T14:31:18;23.90;99.90
10702;DHT22;5402;50.004;8.246;2023-10-13T14:33:46;24.00;99.90
10702;DHT22;5402;50.004;8.246;2023-10-13T14:36:13;24.10;99.90
10702;DHT22;5402;50.004;8.246;2023-10-13T14:38:45;24.40;99.90
10702;DHT22;5402;50.004;8.246;2023-10-13T14:41:15;24.60;99.90
10702;DHT22;5402;50.004;8.246;2023-10-13T14:43:43;24.50;99.90
10702;DHT22;5402;50.004;8.246;2023-10-13T14:46:14;24.70;99.90
10702;DHT22;5402;50.004;8.246;2023-10-13T14:48:41;24.70;99.90
10702;DHT22;5402;50.004;8.246;2023-10-13T14:51:12;24.90;99.90
10702;DHT22;5402;50.004;8.246;2023-10-13T14:53:40;24.90;99.90
10702;DHT22;5402;50.004;8.246;2023-10-13T14:56:10;24.80;99.90
10702;DHT22;5402;50.004;8.246;2023-10-13T14:58:36;24.90;99.90
10702;DHT22;5402;50.004;8.246;2023-10-13T15:01:12;24.70;99.90
10702;DHT22;5402;50.004;8.246;2023-10-13T15:03:41;24.60;99.90
10702;DHT22;5402;50.004;8.246;2023-10-13T15:06:14;24.40;99.90
10702;DHT22;5402;50.004;8.246;2023-10-13T15:08:43;24.30;99.90
10702;DHT22;5402;50.004;8.246;2023-10-13T15:11:11;24.20;99.90
10702;DHT22;5402;50.004;8.246;2023-10-13T15:13:38;24.20;99.90
10702;DHT22;5402;50.004;8.246;2023-10-13T15:16:14;24.10;99.90
10702;DHT22;5402;50.004;8.246;2023-10-13T15:18:43;24.10;99.90
10702;DHT22;5402;50.004;8.246;2023-10-13T15:21:10;24.10;99.90
10702;DHT22;5402;50.004;8.246;2023-10-13T15:23:39;24.10;99.90
10702;DHT22;5402;50.004;8.246;2023-10-13T15:26:09;24.00;99.90
10702;DHT22;5402;50.004;8.246;2023-10-13T15:28:36;24.00;99.90
10702;DHT22;5402;50.004;8.246;2023-10-13T15:31:11;23.90;99.90
10702;DHT22;5402;50.004;8.246;2023-10-13T15:33:51;23.80;99.90
10702;DHT22;5402;50.004;8.246;2023-10-13T15:36:23;23.80;99.90
10702;DHT22;5402;50.004;8.246;2023-10-13T15:38:50;23.80;99.90
10702;DHT22;5402;50.004;8.246;2023-10-13T15:41:23;23.80;99.90
10702;DHT22;5402;50.004;8.246;2023-10-13T15:43:51;23.70;99.90
10702;DHT22;5402;50.004;8.246;2023-10-13T15:46:20;23.80;99.90
10702;DHT22;5402;50.004;8.246;2023-10-13T15:48:49;23.70;99.90
10702;DHT22;5402;50.004;8.246;2023-10-13T15:51:16;23.70;99.90
10702;DHT22;5402;50.004;8.246;2023-10-13T15:53:48;23.60;99.90
10702;DHT22;5402;50.004;8.246;2023-10-13T15:56:17;23.50;99.90
10702;DHT22;5402;50.004;8.246;2023-10-13T15:58:45;23.40;99.90
10702;DHT22;5402;50.004;8.246;2023-10-13T16:01:12;23.30;99.90
10702;DHT22;5402;50.004;8.246;2023-10-13T16:03:39;23.30;99.90
10702;DHT22;5402;50.004;8.246;2023-10-13T16:06:10;23.20;99.90
10702;DHT22;5402;50.004;8.246;2023-10-13T16:08:37;23.10;99.90
10702;DHT22;5402;50.004;8.246;2023-10-13T16:11:05;23.00;99.90
10702;DHT22;5402;50.004;8.246;2023-10-13T16:13:34;22.90;99.90
10702;DHT22;5402;50.004;8.246;2023-10-13T16:16:02;22.90;99.90
10702;DHT22;5402;50.004;8.246;2023-10-13T16:18:29;22.70;99.90
10702;DHT22;5402;50.004;8.246;2023-10-13T16:20:58;22.60;99.90
10702;DHT22;5402;50.004;8.246;2023-10-13T16:23:26;22.50;99.90